aviador You're here:

YBRK Decoded Metar

ROCKHAMPTON in AUSTRALIA
Report Time2017-09-26 03:00:00
UTC Time2017-09-26 03:41:24
Flight Rules vfr VFR
Wind010° at 05 kt
W.Decomp.*RWY 33: 4.3 kt HW 2.6 kt RCW
RWY 04: 3.9 kt HW 3.1 kt LCW
W.Rank010° ranks 10
Current wind is below 010° avg. (6.2)
Visibility9999 m
Phenomena:N/A
Clouds:N/A
Expected CloudBase > 8,400 ft AGL from Temp-Dew spread
CeilingNone
Temp32°C (ISA +17)
Dew Point11°C (27% RH)
Heat Index30.5°C
AAT30.4°C
QNH1012 hPa
Density Alt2,208 ft
Elevation46 ft
Report Wrong Elevation
Raw Report
METAR YBRK 260300Z 01005KT CAVOK 32/11 Q1012=

Extra information for YBRK:More info

Metar Taf Metar & Taf Last 4 Metars F.Rules Stats Wind Profile Meteogram Temp Stats Airport Information Weather charts Add Link Nearby VenuesMetar ALERT Operation Metar Decoded Social comments